sensor_id;sensor_type;location;lat;lon;timestamp;temperature;humidity
29547;DHT22;40782;47.264;11.330;2022-12-11T00:01:20;0.80;1.00
29547;DHT22;40782;47.264;11.330;2022-12-11T00:03:47;0.80;1.00
29547;DHT22;40782;47.264;11.330;2022-12-11T00:06:18;0.80;99.90
29547;DHT22;40782;47.264;11.330;2022-12-11T00:08:46;0.80;99.90
29547;DHT22;40782;47.264;11.330;2022-12-11T00:11:15;0.80;1.00
29547;DHT22;40782;47.264;11.330;2022-12-11T00:13:42;0.80;1.00
29547;DHT22;40782;47.264;11.330;2022-12-11T00:16:09;0.80;1.00
29547;DHT22;40782;47.264;11.330;2022-12-11T00:18:37;0.80;1.00
29547;DHT22;40782;47.264;11.330;2022-12-11T00:21:06;0.80;1.00
29547;DHT22;40782;47.264;11.330;2022-12-11T00:23:36;0.80;99.90
29547;DHT22;40782;47.264;11.330;2022-12-11T00:26:05;0.70;99.90
29547;DHT22;40782;47.264;11.330;2022-12-11T00:28:32;0.70;1.00
29547;DHT22;40782;47.264;11.330;2022-12-11T00:31:02;0.70;1.00
29547;DHT22;40782;47.264;11.330;2022-12-11T00:33:30;0.70;1.00
29547;DHT22;40782;47.264;11.330;2022-12-11T00:35:57;0.70;1.00
29547;DHT22;40782;47.264;11.330;2022-12-11T00:38:24;0.70;1.00
29547;DHT22;40782;47.264;11.330;2022-12-11T00:40:57;0.70;1.00
29547;DHT22;40782;47.264;11.330;2022-12-11T00:43:24;0.50;1.00
29547;DHT22;40782;47.264;11.330;2022-12-11T00:45:51;0.50;99.90
29547;DHT22;40782;47.264;11.330;2022-12-11T00:48:18;0.40;1.00
29547;DHT22;40782;47.264;11.330;2022-12-11T00:50:46;0.40;1.00
29547;DHT22;40782;47.264;11.330;2022-12-11T00:53:13;0.50;1.00
29547;DHT22;40782;47.264;11.330;2022-12-11T00:55:41;0.50;1.00
29547;DHT22;40782;47.264;11.330;2022-12-11T00:58:10;0.50;1.00
29547;DHT22;40782;47.264;11.330;2022-12-11T01:00:39;0.50;70.90
29547;DHT22;40782;47.264;11.330;2022-12-11T01:03:07;0.50;99.90
29547;DHT22;40782;47.264;11.330;2022-12-11T01:05:34;0.50;58.80
29547;DHT22;40782;47.264;11.330;2022-12-11T01:08:01;0.50;1.00
29547;DHT22;40782;47.264;11.330;2022-12-11T01:10:28;0.50;1.00
29547;DHT22;40782;47.264;11.330;2022-12-11T01:12:56;0.50;1.00
29547;DHT22;40782;47.264;11.330;2022-12-11T01:15:26;0.50;1.00
29547;DHT22;40782;47.264;11.330;2022-12-11T01:17:54;0.60;1.00
29547;DHT22;40782;47.264;11.330;2022-12-11T01:20:23;0.60;1.00
29547;DHT22;40782;47.264;11.330;2022-12-11T01:22:51;0.50;95.70
29547;DHT22;40782;47.264;11.330;2022-12-11T01:25:19;0.40;99.90
29547;DHT22;40782;47.264;11.330;2022-12-11T01:27:46;0.40;99.90
29547;DHT22;40782;47.264;11.330;2022-12-11T01:30:13;0.40;1.00
29547;DHT22;40782;47.264;11.330;2022-12-11T01:32:41;0.30;99.90
29547;DHT22;40782;47.264;11.330;2022-12-11T01:35:10;0.40;1.00
29547;DHT22;40782;47.264;11.330;2022-12-11T01:37:38;0.40;99.90
29547;DHT22;40782;47.264;11.330;2022-12-11T01:40:07;0.50;1.00
29547;DHT22;40782;47.264;11.330;2022-12-11T01:42:35;0.50;99.90
29547;DHT22;40782;47.264;11.330;2022-12-11T01:45:37;0.50;46.30
29547;DHT22;40782;47.264;11.330;2022-12-11T01:48:10;0.50;1.00
29547;DHT22;40782;47.264;11.330;2022-12-11T01:50:41;0.40;1.00
29547;DHT22;40782;47.264;11.330;2022-12-11T01:53:12;0.50;1.00
29547;DHT22;40782;47.264;11.330;2022-12-11T01:55:40;0.50;1.00
29547;DHT22;40782;47.264;11.330;2022-12-11T01:58:08;0.50;99.90
29547;DHT22;40782;47.264;11.330;2022-12-11T02:00:36;0.50;1.00
29547;DHT22;40782;47.264;11.330;2022-12-11T02:03:03;0.50;99.90
29547;DHT22;40782;47.264;11.330;2022-12-11T02:05:32;0.40;58.60
29547;DHT22;40782;47.264;11.330;2022-12-11T02:08:01;0.40;1.00
29547;DHT22;40782;47.264;11.330;2022-12-11T02:10:38;0.40;1.00
29547;DHT22;40782;47.264;11.330;2022-12-11T02:13:10;0.40;1.00
29547;DHT22;40782;47.264;11.330;2022-12-11T02:15:43;0.40;1.00
29547;DHT22;40782;47.264;11.330;2022-12-11T02:18:21;0.40;1.00
29547;DHT22;40782;47.264;11.330;2022-12-11T02:20:59;0.40;1.00
29547;DHT22;40782;47.264;11.330;2022-12-11T02:29:38;0.40;1.00
29547;DHT22;40782;47.264;11.330;2022-12-11T02:32:12;0.40;99.90
29547;DHT22;40782;47.264;11.330;2022-12-11T02:34:42;0.40;99.90
29547;DHT22;40782;47.264;11.330;2022-12-11T02:37:15;0.40;99.90
29547;DHT22;40782;47.264;11.330;2022-12-11T02:39:46;0.40;1.00
29547;DHT22;40782;47.264;11.330;2022-12-11T02:42:15;0.30;1.00
29547;DHT22;40782;47.264;11.330;2022-12-11T02:44:46;0.40;15.50
29547;DHT22;40782;47.264;11.330;2022-12-11T02:47:16;0.40;99.90
29547;DHT22;40782;47.264;11.330;2022-12-11T02:49:46;0.30;99.90
29547;DHT22;40782;47.264;11.330;2022-12-11T02:52:17;0.30;99.90
29547;DHT22;40782;47.264;11.330;2022-12-11T02:54:48;0.30;1.00
29547;DHT22;40782;47.264;11.330;2022-12-11T02:57:20;0.20;1.00
29547;DHT22;40782;47.264;11.330;2022-12-11T02:59:51;0.30;99.90
29547;DHT22;40782;47.264;11.330;2022-12-11T03:02:18;0.30;99.90
29547;DHT22;40782;47.264;11.330;2022-12-11T03:04:46;0.30;99.90
29547;DHT22;40782;47.264;11.330;2022-12-11T03:07:17;0.30;1.00
29547;DHT22;40782;47.264;11.330;2022-12-11T03:09:46;0.30;1.00
29547;DHT22;40782;47.264;11.330;2022-12-11T03:12:17;0.30;1.00
29547;DHT22;40782;47.264;11.330;2022-12-11T03:14:45;0.30;99.00
29547;DHT22;40782;47.264;11.330;2022-12-11T03:17:17;0.30;1.00
29547;DHT22;40782;47.264;11.330;2022-12-11T03:19:52;0.20;1.00
29547;DHT22;40782;47.264;11.330;2022-12-11T03:22:25;0.20;99.90
29547;DHT22;40782;47.264;11.330;2022-12-11T03:25:00;0.20;1.00
29547;DHT22;40782;47.264;11.330;2022-12-11T03:27:33;0.10;99.90
29547;DHT22;40782;47.264;11.330;2022-12-11T03:30:05;0.10;99.90
29547;DHT22;40782;47.264;11.330;2022-12-11T03:32:37;0.10;99.90
29547;DHT22;40782;47.264;11.330;2022-12-11T03:35:10;0.10;1.00
29547;DHT22;40782;47.264;11.330;2022-12-11T03:37:40;0.10;99.90
29547;DHT22;40782;47.264;11.330;2022-12-11T03:40:13;0.10;99.90
29547;DHT22;40782;47.264;11.330;2022-12-11T03:42:41;0.20;1.00
29547;DHT22;40782;47.264;11.330;2022-12-11T03:45:11;0.10;1.00
29547;DHT22;40782;47.264;11.330;2022-12-11T03:47:40;0.10;1.00
29547;DHT22;40782;47.264;11.330;2022-12-11T03:50:10;0.10;99.90
29547;DHT22;40782;47.264;11.330;2022-12-11T03:52:39;0.10;1.00
29547;DHT22;40782;47.264;11.330;2022-12-11T03:55:07;0.00;1.00
29547;DHT22;40782;47.264;11.330;2022-12-11T03:57:36;0.10;1.00
29547;DHT22;40782;47.264;11.330;2022-12-11T04:00:05;0.10;1.00
29547;DHT22;40782;47.264;11.330;2022-12-11T04:02:32;0.10;99.90
29547;DHT22;40782;47.264;11.330;2022-12-11T04:05:01;0.10;1.00
29547;DHT22;40782;47.264;11.330;2022-12-11T04:07:28;0.00;99.90
29547;DHT22;40782;47.264;11.330;2022-12-11T04:09:55;0.00;99.90
29547;DHT22;40782;47.264;11.330;2022-12-11T04:12:23;0.00;1.00
29547;DHT22;40782;47.264;11.330;2022-12-11T04:14:50;0.00;1.00
29547;DHT22;40782;47.264;11.330;2022-12-11T04:17:30;-0.10;1.00
29547;DHT22;40782;47.264;11.330;2022-12-11T04:20:16;-0.10;1.00
29547;DHT22;40782;47.264;11.330;2022-12-11T04:23:03;-0.10;1.00
29547;DHT22;40782;47.264;11.330;2022-12-11T04:25:48;-0.10;1.00
29547;DHT22;40782;47.264;11.330;2022-12-11T04:28:16;-0.10;99.90
29547;DHT22;40782;47.264;11.330;2022-12-11T04:30:47;-0.10;1.00
29547;DHT22;40782;47.264;11.330;2022-12-11T04:33:14;-0.10;99.90
29547;DHT22;40782;47.264;11.330;2022-12-11T04:35:43;-0.10;1.00
29547;DHT22;40782;47.264;11.330;2022-12-11T04:38:10;-0.10;1.00
29547;DHT22;40782;47.264;11.330;2022-12-11T04:40:37;-0.10;1.00
29547;DHT22;40782;47.264;11.330;2022-12-11T04:43:04;-0.20;99.90
29547;DHT22;40782;47.264;11.330;2022-12-11T04:45:32;-0.20;99.90
29547;DHT22;40782;47.264;11.330;2022-12-11T04:47:59;-0.10;99.90
29547;DHT22;40782;47.264;11.330;2022-12-11T04:50:27;-0.10;1.00
29547;DHT22;40782;47.264;11.330;2022-12-11T04:52:55;-0.20;99.90
29547;DHT22;40782;47.264;11.330;2022-12-11T04:55:23;-0.20;1.00
29547;DHT22;40782;47.264;11.330;2022-12-11T04:57:50;-0.20;1.00
29547;DHT22;40782;47.264;11.330;2022-12-11T05:00:17;-0.20;1.00
29547;DHT22;40782;47.264;11.330;2022-12-11T05:02:44;-0.20;99.90
29547;DHT22;40782;47.264;11.330;2022-12-11T05:05:11;-0.20;1.00
29547;DHT22;40782;47.264;11.330;2022-12-11T05:07:39;-0.10;8.30
29547;DHT22;40782;47.264;11.330;2022-12-11T05:10:09;-0.10;1.00
29547;DHT22;40782;47.264;11.330;2022-12-11T05:12:36;-0.10;1.00
29547;DHT22;40782;47.264;11.330;2022-12-11T05:15:04;-0.10;1.00
29547;DHT22;40782;47.264;11.330;2022-12-11T05:17:32;-0.10;1.00
29547;DHT22;40782;47.264;11.330;2022-12-11T05:19:59;-0.10;1.00
29547;DHT22;40782;47.264;11.330;2022-12-11T05:22:29;-0.10;1.00
29547;DHT22;40782;47.264;11.330;2022-12-11T05:24:56;-0.10;99.90
29547;DHT22;40782;47.264;11.330;2022-12-11T05:27:25;-0.10;1.00
29547;DHT22;40782;47.264;11.330;2022-12-11T05:29:52;-0.20;99.90
29547;DHT22;40782;47.264;11.330;2022-12-11T05:32:19;-0.20;1.00
29547;DHT22;40782;47.264;11.330;2022-12-11T05:34:46;-0.20;99.90
29547;DHT22;40782;47.264;11.330;2022-12-11T05:37:13;-0.20;99.90
29547;DHT22;40782;47.264;11.330;2022-12-11T05:39:41;-0.20;1.00
29547;DHT22;40782;47.264;11.330;2022-12-11T05:42:08;-0.20;1.00
29547;DHT22;40782;47.264;11.330;2022-12-11T05:44:36;-0.20;36.70
29547;DHT22;40782;47.264;11.330;2022-12-11T05:47:03;-0.20;1.00
29547;DHT22;40782;47.264;11.330;2022-12-11T05:49:30;-0.10;1.00
29547;DHT22;40782;47.264;11.330;2022-12-11T05:51:58;-0.10;1.00
29547;DHT22;40782;47.264;11.330;2022-12-11T05:54:25;-0.10;99.90
29547;DHT22;40782;47.264;11.330;2022-12-11T05:56:52;-0.10;1.00
29547;DHT22;40782;47.264;11.330;2022-12-11T05:59:19;-0.20;1.00
29547;DHT22;40782;47.264;11.330;2022-12-11T06:01:48;-0.10;1.00
29547;DHT22;40782;47.264;11.330;2022-12-11T06:04:15;-0.10;1.00
29547;DHT22;40782;47.264;11.330;2022-12-11T06:06:42;-0.10;99.90
29547;DHT22;40782;47.264;11.330;2022-12-11T06:09:12;-0.10;99.90
29547;DHT22;40782;47.264;11.330;2022-12-11T06:11:39;-0.10;99.90
29547;DHT22;40782;47.264;11.330;2022-12-11T06:14:06;-0.10;99.90
29547;DHT22;40782;47.264;11.330;2022-12-11T06:16:34;-0.20;1.00
29547;DHT22;40782;47.264;11.330;2022-12-11T06:19:02;-0.20;99.90
29547;DHT22;40782;47.264;11.330;2022-12-11T06:21:31;-0.20;1.00
29547;DHT22;40782;47.264;11.330;2022-12-11T06:24:01;-0.20;1.00
29547;DHT22;40782;47.264;11.330;2022-12-11T06:26:30;-0.20;1.00
29547;DHT22;40782;47.264;11.330;2022-12-11T06:28:57;-0.20;1.00
29547;DHT22;40782;47.264;11.330;2022-12-11T06:31:24;-0.20;1.00
29547;DHT22;40782;47.264;11.330;2022-12-11T06:33:52;-0.20;1.00
29547;DHT22;40782;47.264;11.330;2022-12-11T06:36:23;-0.30;1.00
29547;DHT22;40782;47.264;11.330;2022-12-11T06:38:51;-0.30;99.90
29547;DHT22;40782;47.264;11.330;2022-12-11T06:41:18;-0.40;22.60
29547;DHT22;40782;47.264;11.330;2022-12-11T06:43:46;-0.40;1.00
29547;DHT22;40782;47.264;11.330;2022-12-11T06:46:14;-0.40;1.00
29547;DHT22;40782;47.264;11.330;2022-12-11T06:48:43;-0.40;1.00
29547;DHT22;40782;47.264;11.330;2022-12-11T06:51:12;-0.40;1.00
29547;DHT22;40782;47.264;11.330;2022-12-11T06:53:41;-0.40;1.00
29547;DHT22;40782;47.264;11.330;2022-12-11T06:56:11;-0.30;1.00
29547;DHT22;40782;47.264;11.330;2022-12-11T06:58:39;-0.30;99.90
29547;DHT22;40782;47.264;11.330;2022-12-11T07:01:14;-0.30;1.00
29547;DHT22;40782;47.264;11.330;2022-12-11T07:03:41;-0.40;99.90
29547;DHT22;40782;47.264;11.330;2022-12-11T07:06:08;-0.40;1.00
29547;DHT22;40782;47.264;11.330;2022-12-11T07:08:36;-0.40;1.00
29547;DHT22;40782;47.264;11.330;2022-12-11T07:11:06;-0.40;1.00
29547;DHT22;40782;47.264;11.330;2022-12-11T07:13:34;-0.40;1.00
29547;DHT22;40782;47.264;11.330;2022-12-11T07:16:02;-0.50;1.00
29547;DHT22;40782;47.264;11.330;2022-12-11T07:18:30;-0.50;1.00
29547;DHT22;40782;47.264;11.330;2022-12-11T07:20:57;-0.50;99.90
29547;DHT22;40782;47.264;11.330;2022-12-11T07:23:25;-0.60;1.00
29547;DHT22;40782;47.264;11.330;2022-12-11T07:25:53;-0.60;1.00
29547;DHT22;40782;47.264;11.330;2022-12-11T07:28:22;-0.60;99.90
29547;DHT22;40782;47.264;11.330;2022-12-11T07:30:49;-0.50;1.00
29547;DHT22;40782;47.264;11.330;2022-12-11T07:33:16;-0.50;1.00
29547;DHT22;40782;47.264;11.330;2022-12-11T07:35:43;-0.50;1.00
29547;DHT22;40782;47.264;11.330;2022-12-11T07:38:12;-0.40;1.00
29547;DHT22;40782;47.264;11.330;2022-12-11T07:40:39;-0.40;1.00
29547;DHT22;40782;47.264;11.330;2022-12-11T07:43:06;-0.40;1.00
29547;DHT22;40782;47.264;11.330;2022-12-11T07:45:34;-0.50;99.90
29547;DHT22;40782;47.264;11.330;2022-12-11T07:48:02;-0.50;64.20
29547;DHT22;40782;47.264;11.330;2022-12-11T07:50:29;-0.50;99.90
29547;DHT22;40782;47.264;11.330;2022-12-11T07:52:56;-0.50;90.00
29547;DHT22;40782;47.264;11.330;2022-12-11T07:55:24;-0.50;1.00
29547;DHT22;40782;47.264;11.330;2022-12-11T07:57:51;-0.50;1.00
29547;DHT22;40782;47.264;11.330;2022-12-11T08:00:18;-0.50;1.00
29547;DHT22;40782;47.264;11.330;2022-12-11T08:02:47;-0.40;1.00
29547;DHT22;40782;47.264;11.330;2022-12-11T08:05:14;-0.50;1.00
29547;DHT22;40782;47.264;11.330;2022-12-11T08:07:41;-0.40;1.00
29547;DHT22;40782;47.264;11.330;2022-12-11T08:10:09;-0.50;1.00
29547;DHT22;40782;47.264;11.330;2022-12-11T08:12:36;-0.40;1.00
29547;DHT22;40782;47.264;11.330;2022-12-11T08:15:04;-0.40;1.00
29547;DHT22;40782;47.264;11.330;2022-12-11T08:17:31;-0.40;1.00
29547;DHT22;40782;47.264;11.330;2022-12-11T08:20:00;-0.40;1.00
29547;DHT22;40782;47.264;11.330;2022-12-11T08:22:27;-0.30;25.80
29547;DHT22;40782;47.264;11.330;2022-12-11T08:24:54;-0.30;99.90
29547;DHT22;40782;47.264;11.330;2022-12-11T08:27:21;-0.40;1.00
29547;DHT22;40782;47.264;11.330;2022-12-11T08:29:48;-0.40;1.00
29547;DHT22;40782;47.264;11.330;2022-12-11T08:32:15;-0.40;1.00
29547;DHT22;40782;47.264;11.330;2022-12-11T08:34:43;-0.40;1.00
29547;DHT22;40782;47.264;11.330;2022-12-11T08:37:12;-0.40;1.00
29547;DHT22;40782;47.264;11.330;2022-12-11T08:39:39;-0.30;1.00
29547;DHT22;40782;47.264;11.330;2022-12-11T08:42:08;-0.20;1.00
29547;DHT22;40782;47.264;11.330;2022-12-11T08:44:35;-0.20;1.00
29547;DHT22;40782;47.264;11.330;2022-12-11T08:47:02;-0.20;1.00
29547;DHT22;40782;47.264;11.330;2022-12-11T08:49:29;-0.20;99.90
29547;DHT22;40782;47.264;11.330;2022-12-11T08:51:56;-0.20;99.90
29547;DHT22;40782;47.264;11.330;2022-12-11T08:54:25;-0.20;99.90
29547;DHT22;40782;47.264;11.330;2022-12-11T08:56:52;-0.10;99.90
29547;DHT22;40782;47.264;11.330;2022-12-11T08:59:19;-0.10;99.90
29547;DHT22;40782;47.264;11.330;2022-12-11T09:01:46;-0.10;99.90
29547;DHT22;40782;47.264;11.330;2022-12-11T09:04:14;0.00;99.90
29547;DHT22;40782;47.264;11.330;2022-12-11T09:06:41;0.00;99.90
29547;DHT22;40782;47.264;11.330;2022-12-11T09:09:08;0.00;99.90
29547;DHT22;40782;47.264;11.330;2022-12-11T09:11:37;0.10;99.90
29547;DHT22;40782;47.264;11.330;2022-12-11T09:14:04;0.10;99.90
29547;DHT22;40782;47.264;11.330;2022-12-11T09:16:32;0.20;99.90
29547;DHT22;40782;47.264;11.330;2022-12-11T09:18:59;0.20;99.90
29547;DHT22;40782;47.264;11.330;2022-12-11T09:21:28;0.20;99.90
29547;DHT22;40782;47.264;11.330;2022-12-11T09:23:57;0.10;99.90
29547;DHT22;40782;47.264;11.330;2022-12-11T09:26:25;0.00;53.50
29547;DHT22;40782;47.264;11.330;2022-12-11T09:28:54;0.00;55.30
29547;DHT22;40782;47.264;11.330;2022-12-11T09:31:24;0.00;50.40
29547;DHT22;40782;47.264;11.330;2022-12-11T09:33:54;-0.10;99.90
29547;DHT22;40782;47.264;11.330;2022-12-11T09:36:22;-0.10;82.00
29547;DHT22;40782;47.264;11.330;2022-12-11T09:38:50;-0.10;57.80
29547;DHT22;40782;47.264;11.330;2022-12-11T09:41:28;0.00;16.60
29547;DHT22;40782;47.264;11.330;2022-12-11T09:44:05;0.00;20.10
29547;DHT22;40782;47.264;11.330;2022-12-11T09:46:35;0.10;18.50
29547;DHT22;40782;47.264;11.330;2022-12-11T09:49:03;0.00;1.00
29547;DHT22;40782;47.264;11.330;2022-12-11T09:51:35;0.10;1.00
29547;DHT22;40782;47.264;11.330;2022-12-11T09:54:05;0.10;10.20
29547;DHT22;40782;47.264;11.330;2022-12-11T09:56:35;0.30;1.00
29547;DHT22;40782;47.264;11.330;2022-12-11T09:59:15;0.60;1.00
29547;DHT22;40782;47.264;11.330;2022-12-11T10:01:51;1.00;1.00
29547;DHT22;40782;47.264;11.330;2022-12-11T10:04:39;1.00;1.00
29547;DHT22;40782;47.264;11.330;2022-12-11T10:07:11;1.10;1.00
29547;DHT22;40782;47.264;11.330;2022-12-11T10:09:47;1.00;1.00
29547;DHT22;40782;47.264;11.330;2022-12-11T10:12:29;0.90;1.00
29547;DHT22;40782;47.264;11.330;2022-12-11T10:15:07;0.80;1.00
29547;DHT22;40782;47.264;11.330;2022-12-11T10:17:37;0.80;1.00
29547;DHT22;40782;47.264;11.330;2022-12-11T10:20:16;0.70;1.00
29547;DHT22;40782;47.264;11.330;2022-12-11T10:22:46;0.80;1.00
29547;DHT22;40782;47.264;11.330;2022-12-11T10:25:19;0.70;1.00
29547;DHT22;40782;47.264;11.330;2022-12-11T10:27:46;0.80;1.00
29547;DHT22;40782;47.264;11.330;2022-12-11T10:30:19;0.70;1.00
29547;DHT22;40782;47.264;11.330;2022-12-11T10:32:56;0.70;1.00
29547;DHT22;40782;47.264;11.330;2022-12-11T10:35:32;0.80;1.00
29547;DHT22;40782;47.264;11.330;2022-12-11T10:38:11;0.80;1.00
29547;DHT22;40782;47.264;11.330;2022-12-11T10:40:43;0.90;1.00
29547;DHT22;40782;47.264;11.330;2022-12-11T10:43:11;0.90;1.00
29547;DHT22;40782;47.264;11.330;2022-12-11T10:45:50;0.90;1.00
29547;DHT22;40782;47.264;11.330;2022-12-11T10:48:17;0.90;1.00
29547;DHT22;40782;47.264;11.330;2022-12-11T10:50:58;0.80;1.00
29547;DHT22;40782;47.264;11.330;2022-12-11T10:53:26;0.80;1.00
29547;DHT22;40782;47.264;11.330;2022-12-11T10:55:54;0.70;1.00
29547;DHT22;40782;47.264;11.330;2022-12-11T10:58:24;0.70;1.00
29547;DHT22;40782;47.264;11.330;2022-12-11T11:01:05;0.90;1.00
29547;DHT22;40782;47.264;11.330;2022-12-11T11:03:35;1.10;1.00
29547;DHT22;40782;47.264;11.330;2022-12-11T11:06:11;1.00;1.00
29547;DHT22;40782;47.264;11.330;2022-12-11T11:08:41;1.00;1.00
29547;DHT22;40782;47.264;11.330;2022-12-11T11:11:20;1.00;1.00
29547;DHT22;40782;47.264;11.330;2022-12-11T11:13:48;1.00;1.00
29547;DHT22;40782;47.264;11.330;2022-12-11T11:16:19;1.00;1.00
29547;DHT22;40782;47.264;11.330;2022-12-11T11:18:53;1.10;1.00
29547;DHT22;40782;47.264;11.330;2022-12-11T11:21:22;1.40;1.00
29547;DHT22;40782;47.264;11.330;2022-12-11T11:23:50;1.60;1.00
29547;DHT22;40782;47.264;11.330;2022-12-11T11:26:18;1.70;1.00
29547;DHT22;40782;47.264;11.330;2022-12-11T11:28:49;1.80;1.00
29547;DHT22;40782;47.264;11.330;2022-12-11T11:31:18;1.90;1.00
29547;DHT22;40782;47.264;11.330;2022-12-11T11:33:54;2.10;1.00
29547;DHT22;40782;47.264;11.330;2022-12-11T11:36:25;2.20;1.00
29547;DHT22;40782;47.264;11.330;2022-12-11T11:39:11;2.40;1.00
29547;DHT22;40782;47.264;11.330;2022-12-11T11:41:44;2.40;1.00
29547;DHT22;40782;47.264;11.330;2022-12-11T11:44:16;2.30;1.00
29547;DHT22;40782;47.264;11.330;2022-12-11T11:46:51;2.10;1.00
29547;DHT22;40782;47.264;11.330;2022-12-11T11:49:28;1.90;1.00
29547;DHT22;40782;47.264;11.330;2022-12-11T11:52:10;1.80;1.00
29547;DHT22;40782;47.264;11.330;2022-12-11T11:54:45;1.50;1.00
29547;DHT22;40782;47.264;11.330;2022-12-11T11:57:18;1.50;1.00
29547;DHT22;40782;47.264;11.330;2022-12-11T11:59:50;1.30;1.00
29547;DHT22;40782;47.264;11.330;2022-12-11T12:02:21;1.20;1.00
29547;DHT22;40782;47.264;11.330;2022-12-11T12:04:49;1.20;1.00
29547;DHT22;40782;47.264;11.330;2022-12-11T12:07:27;1.30;1.00
29547;DHT22;40782;47.264;11.330;2022-12-11T12:10:00;1.30;1.00
29547;DHT22;40782;47.264;11.330;2022-12-11T12:12:36;1.40;1.00
29547;DHT22;40782;47.264;11.330;2022-12-11T12:15:20;1.40;1.00
29547;DHT22;40782;47.264;11.330;2022-12-11T12:17:55;1.60;1.00
29547;DHT22;40782;47.264;11.330;2022-12-11T12:20:35;1.80;1.00
29547;DHT22;40782;47.264;11.330;2022-12-11T12:23:35;1.90;1.00
29547;DHT22;40782;47.264;11.330;2022-12-11T12:26:10;1.80;1.00
29547;DHT22;40782;47.264;11.330;2022-12-11T12:28:42;1.90;1.00
29547;DHT22;40782;47.264;11.330;2022-12-11T12:31:23;2.00;1.00
29547;DHT22;40782;47.264;11.330;2022-12-11T12:34:01;2.00;1.00
29547;DHT22;40782;47.264;11.330;2022-12-11T12:36:36;2.00;1.00
29547;DHT22;40782;47.264;11.330;2022-12-11T12:39:12;1.90;1.00
29547;DHT22;40782;47.264;11.330;2022-12-11T12:41:46;1.90;1.00
29547;DHT22;40782;47.264;11.330;2022-12-11T12:44:19;2.00;1.00
29547;DHT22;40782;47.264;11.330;2022-12-11T12:46:56;2.30;1.00
29547;DHT22;40782;47.264;11.330;2022-12-11T12:49:37;2.70;1.00
29547;DHT22;40782;47.264;11.330;2022-12-11T12:52:12;3.30;1.00
29547;DHT22;40782;47.264;11.330;2022-12-11T12:54:40;4.00;1.00
29547;DHT22;40782;47.264;11.330;2022-12-11T12:57:29;4.40;1.00
29547;DHT22;40782;47.264;11.330;2022-12-11T12:59:56;4.90;1.00
29547;DHT22;40782;47.264;11.330;2022-12-11T13:02:23;4.90;99.90
29547;DHT22;40782;47.264;11.330;2022-12-11T13:05:14;5.10;99.90
29547;DHT22;40782;47.264;11.330;2022-12-11T13:07:48;5.30;99.90
29547;DHT22;40782;47.264;11.330;2022-12-11T13:10:28;5.00;99.90
29547;DHT22;40782;47.264;11.330;2022-12-11T13:12:57;4.80;99.90
29547;DHT22;40782;47.264;11.330;2022-12-11T13:15:34;5.10;99.90
29547;DHT22;40782;47.264;11.330;2022-12-11T13:20:51;5.30;99.90
29547;DHT22;40782;47.264;11.330;2022-12-11T13:23:25;5.20;99.90
29547;DHT22;40782;47.264;11.330;2022-12-11T13:25:54;4.60;99.90
29547;DHT22;40782;47.264;11.330;2022-12-11T13:28:28;4.30;99.90
29547;DHT22;40782;47.264;11.330;2022-12-11T13:31:01;4.70;99.90
29547;DHT22;40782;47.264;11.330;2022-12-11T13:33:29;4.60;99.90
29547;DHT22;40782;47.264;11.330;2022-12-11T13:36:27;4.30;99.90
29547;DHT22;40782;47.264;11.330;2022-12-11T13:38:59;4.10;99.90
29547;DHT22;40782;47.264;11.330;2022-12-11T13:41:28;3.80;99.90
29547;DHT22;40782;47.264;11.330;2022-12-11T13:43:56;3.50;99.90
29547;DHT22;40782;47.264;11.330;2022-12-11T13:46:26;3.10;99.90
29547;DHT22;40782;47.264;11.330;2022-12-11T13:48:56;3.00;99.90
29547;DHT22;40782;47.264;11.330;2022-12-11T13:51:30;2.90;99.90
29547;DHT22;40782;47.264;11.330;2022-12-11T13:54:11;2.70;99.90
29547;DHT22;40782;47.264;11.330;2022-12-11T13:56:40;2.60;99.90
29547;DHT22;40782;47.264;11.330;2022-12-11T13:59:21;2.40;99.90
29547;DHT22;40782;47.264;11.330;2022-12-11T14:01:50;2.30;99.90
29547;DHT22;40782;47.264;11.330;2022-12-11T14:04:20;2.20;99.90
29547;DHT22;40782;47.264;11.330;2022-12-11T14:06:49;2.00;99.90
29547;DHT22;40782;47.264;11.330;2022-12-11T14:09:19;1.90;99.90
29547;DHT22;40782;47.264;11.330;2022-12-11T14:11:47;1.80;99.90
29547;DHT22;40782;47.264;11.330;2022-12-11T14:14:18;1.60;99.90
29547;DHT22;40782;47.264;11.330;2022-12-11T14:16:47;1.50;99.90
29547;DHT22;40782;47.264;11.330;2022-12-11T14:19:17;1.50;99.90
29547;DHT22;40782;47.264;11.330;2022-12-11T14:21:56;1.30;99.90
29547;DHT22;40782;47.264;11.330;2022-12-11T14:24:24;1.20;99.90
29547;DHT22;40782;47.264;11.330;2022-12-11T14:26:53;1.10;99.90
29547;DHT22;40782;47.264;11.330;2022-12-11T14:29:23;1.00;99.90
29547;DHT22;40782;47.264;11.330;2022-12-11T14:31:51;0.90;99.90
29547;DHT22;40782;47.264;11.330;2022-12-11T14:34:22;0.90;99.90
29547;DHT22;40782;47.264;11.330;2022-12-11T14:36:51;0.90;99.90
29547;DHT22;40782;47.264;11.330;2022-12-11T14:39:24;1.00;1.00
29547;DHT22;40782;47.264;11.330;2022-12-11T14:41:58;0.90;1.00
29547;DHT22;40782;47.264;11.330;2022-12-11T14:44:29;0.90;1.00
29547;DHT22;40782;47.264;11.330;2022-12-11T14:46:59;0.70;1.00
29547;DHT22;40782;47.264;11.330;2022-12-11T14:49:34;0.80;1.00
29547;DHT22;40782;47.264;11.330;2022-12-11T14:52:03;0.60;1.00
29547;DHT22;40782;47.264;11.330;2022-12-11T14:54:34;0.60;1.00
29547;DHT22;40782;47.264;11.330;2022-12-11T14:57:04;0.60;1.00
29547;DHT22;40782;47.264;11.330;2022-12-11T14:59:35;0.50;1.00
29547;DHT22;40782;47.264;11.330;2022-12-11T15:02:18;0.40;1.00
29547;DHT22;40782;47.264;11.330;2022-12-11T15:04:56;0.40;1.00
29547;DHT22;40782;47.264;11.330;2022-12-11T15:07:24;0.30;1.00
29547;DHT22;40782;47.264;11.330;2022-12-11T15:09:53;0.30;1.00
29547;DHT22;40782;47.264;11.330;2022-12-11T15:12:20;0.20;1.00
29547;DHT22;40782;47.264;11.330;2022-12-11T15:14:50;0.20;1.00
29547;DHT22;40782;47.264;11.330;2022-12-11T15:17:18;0.10;1.00
29547;DHT22;40782;47.264;11.330;2022-12-11T15:19:48;0.10;1.00
29547;DHT22;40782;47.264;11.330;2022-12-11T15:22:16;0.10;1.00
29547;DHT22;40782;47.264;11.330;2022-12-11T15:24:48;0.00;1.00
29547;DHT22;40782;47.264;11.330;2022-12-11T15:27:33;0.00;1.00
29547;DHT22;40782;47.264;11.330;2022-12-11T15:30:01;-0.10;1.00
29547;DHT22;40782;47.264;11.330;2022-12-11T15:32:29;-0.20;1.00
29547;DHT22;40782;47.264;11.330;2022-12-11T15:34:57;-0.10;1.00
29547;DHT22;40782;47.264;11.330;2022-12-11T15:37:27;-0.10;1.00
29547;DHT22;40782;47.264;11.330;2022-12-11T15:39:56;-0.10;1.00
29547;DHT22;40782;47.264;11.330;2022-12-11T15:42:27;-0.20;1.00
29547;DHT22;40782;47.264;11.330;2022-12-11T15:44:55;-0.10;1.00
29547;DHT22;40782;47.264;11.330;2022-12-11T15:47:24;-0.20;1.00
29547;DHT22;40782;47.264;11.330;2022-12-11T15:49:53;-0.20;1.00
29547;DHT22;40782;47.264;11.330;2022-12-11T15:52:21;-0.30;1.00
29547;DHT22;40782;47.264;11.330;2022-12-11T15:54:48;-0.40;1.00
29547;DHT22;40782;47.264;11.330;2022-12-11T15:57:18;-0.30;1.00
29547;DHT22;40782;47.264;11.330;2022-12-11T15:59:48;-0.40;1.00
29547;DHT22;40782;47.264;11.330;2022-12-11T16:02:17;-0.40;1.00
29547;DHT22;40782;47.264;11.330;2022-12-11T16:04:44;-0.50;1.00